sensor_id;sensor_type;location;lat;lon;timestamp;pressure;altitude;pressure_sealevel;temperature;humidity
46876;BME280;32866;50.160;14.768;2024-03-02T00:00:08;98401.41;;;7.22;100.00
46876;BME280;32866;50.160;14.768;2024-03-02T00:02:46;98403.69;;;7.23;100.00
46876;BME280;32866;50.160;14.768;2024-03-02T00:05:12;98401.41;;;7.22;100.00
46876;BME280;32866;50.160;14.768;2024-03-02T00:07:41;98401.41;;;7.22;100.00
46876;BME280;32866;50.160;14.768;2024-03-02T00:10:08;98407.72;;;7.19;100.00
46876;BME280;32866;50.160;14.768;2024-03-02T00:12:38;98400.00;;;7.17;100.00
46876;BME280;32866;50.160;14.768;2024-03-02T00:15:21;98401.94;;;7.17;100.00
46876;BME280;32866;50.160;14.768;2024-03-02T00:17:53;98402.38;;;7.15;100.00
46876;BME280;32866;50.160;14.768;2024-03-02T00:20:19;98399.66;;;7.15;100.00
46876;BME280;32866;50.160;14.768;2024-03-02T00:22:46;98407.97;;;7.12;100.00
46876;BME280;32866;50.160;14.768;2024-03-02T00:25:12;98403.38;;;7.09;100.00
46876;BME280;32866;50.160;14.768;2024-03-02T00:27:38;98403.81;;;7.07;100.00
46876;BME280;32866;50.160;14.768;2024-03-02T00:30:37;98404.28;;;7.05;100.00
46876;BME280;32866;50.160;14.768;2024-03-02T00:32:50;98403.50;;;7.05;100.00
46876;BME280;32866;50.160;14.768;2024-03-02T00:35:18;98400.34;;;7.06;100.00
46876;BME280;32866;50.160;14.768;2024-03-02T00:37:46;98402.81;;;7.14;100.00
46876;BME280;32866;50.160;14.768;2024-03-02T00:40:12;98405.22;;;7.12;100.00
46876;BME280;32866;50.160;14.768;2024-03-02T00:42:40;98402.19;;;7.10;100.00
46876;BME280;32866;50.160;14.768;2024-03-02T00:45:07;98405.03;;;7.06;100.00
46876;BME280;32866;50.160;14.768;2024-03-02T00:47:37;98407.88;;;7.02;100.00
46876;BME280;32866;50.160;14.768;2024-03-02T00:50:04;98416.03;;;7.02;100.00
46876;BME280;32866;50.160;14.768;2024-03-02T00:52:31;98406.44;;;6.98;100.00
46876;BME280;32866;50.160;14.768;2024-03-02T00:54:58;98415.94;;;6.93;100.00
46876;BME280;32866;50.160;14.768;2024-03-02T00:57:24;98414.06;;;6.90;100.00
46876;BME280;32866;50.160;14.768;2024-03-02T00:59:51;98416.47;;;6.88;100.00
46876;BME280;32866;50.160;14.768;2024-03-02T01:02:17;98413.44;;;6.86;100.00
46876;BME280;32866;50.160;14.768;2024-03-02T01:04:45;98424.44;;;6.82;100.00
46876;BME280;32866;50.160;14.768;2024-03-02T01:07:11;98416.25;;;6.82;100.00
46876;BME280;32866;50.160;14.768;2024-03-02T01:09:37;98416.69;;;6.81;100.00
46876;BME280;32866;50.160;14.768;2024-03-02T01:12:02;98411.13;;;6.84;100.00
46876;BME280;32866;50.160;14.768;2024-03-02T01:14:28;98412.22;;;6.87;100.00
46876;BME280;32866;50.160;14.768;2024-03-02T01:16:54;98408.31;;;6.88;100.00
46876;BME280;32866;50.160;14.768;2024-03-02T01:19:20;98415.59;;;6.91;100.00
46876;BME280;32866;50.160;14.768;2024-03-02T01:21:46;98414.75;;;6.94;100.00
46876;BME280;32866;50.160;14.768;2024-03-02T01:24:12;98401.44;;;6.96;100.00
46876;BME280;32866;50.160;14.768;2024-03-02T01:26:38;98404.47;;;6.98;100.00
46876;BME280;32866;50.160;14.768;2024-03-02T01:29:04;98402.06;;;7.00;100.00
46876;BME280;32866;50.160;14.768;2024-03-02T01:31:30;98402.84;;;7.01;100.00
46876;BME280;32866;50.160;14.768;2024-03-02T01:33:56;98413.63;;;7.04;100.00
46876;BME280;32866;50.160;14.768;2024-03-02T01:36:21;98411.34;;;7.03;100.00
46876;BME280;32866;50.160;14.768;2024-03-02T01:38:47;98415.25;;;7.02;100.00
46876;BME280;32866;50.160;14.768;2024-03-02T01:41:13;98403.94;;;7.03;100.00
46876;BME280;32866;50.160;14.768;2024-03-02T01:43:39;98405.34;;;7.08;100.00
46876;BME280;32866;50.160;14.768;2024-03-02T01:46:04;98408.75;;;7.12;100.00
46876;BME280;32866;50.160;14.768;2024-03-02T01:48:30;98404.16;;;7.09;100.00
46876;BME280;32866;50.160;14.768;2024-03-02T01:50:56;98410.03;;;7.08;100.00
46876;BME280;32866;50.160;14.768;2024-03-02T01:53:23;98411.22;;;7.06;100.00
46876;BME280;32866;50.160;14.768;2024-03-02T01:55:49;98401.88;;;7.08;100.00
46876;BME280;32866;50.160;14.768;2024-03-02T01:58:14;98398.03;;;7.05;100.00
46876;BME280;32866;50.160;14.768;2024-03-02T02:00:40;98395.31;;;7.05;100.00
46876;BME280;32866;50.160;14.768;2024-03-02T02:03:06;98405.47;;;7.04;100.00
46876;BME280;32866;50.160;14.768;2024-03-02T02:05:32;98407.88;;;7.02;100.00
46876;BME280;32866;50.160;14.768;2024-03-02T02:07:58;98404.47;;;6.98;100.00
46876;BME280;32866;50.160;14.768;2024-03-02T02:10:24;98406.13;;;6.96;100.00
46876;BME280;32866;50.160;14.768;2024-03-02T02:12:50;98402.97;;;6.97;100.00
46876;BME280;32866;50.160;14.768;2024-03-02T02:15:28;98407.53;;;7.00;100.00
46876;BME280;32866;50.160;14.768;2024-03-02T02:17:54;98386.94;;;6.99;100.00
46876;BME280;32866;50.160;14.768;2024-03-02T02:20:20;98389.69;;;6.99;100.00
46876;BME280;32866;50.160;14.768;2024-03-02T02:22:55;98395.88;;;7.00;100.00
46876;BME280;32866;50.160;14.768;2024-03-02T02:25:21;98392.72;;;7.01;100.00
46876;BME280;32866;50.160;14.768;2024-03-02T02:27:47;98392.72;;;7.01;100.00
46876;BME280;32866;50.160;14.768;2024-03-02T02:30:13;98396.63;;;7.00;100.00
46876;BME280;32866;50.160;14.768;2024-03-02T02:32:39;98394.25;;;7.02;100.00
46876;BME280;32866;50.160;14.768;2024-03-02T02:35:13;98396.09;;;7.05;100.00
46876;BME280;32866;50.160;14.768;2024-03-02T02:37:39;98404.59;;;7.08;100.00
46876;BME280;32866;50.160;14.768;2024-03-02T02:40:05;98406.53;;;7.07;100.00
46876;BME280;32866;50.160;14.768;2024-03-02T02:42:31;98415.19;;;7.05;100.00
46876;BME280;32866;50.160;14.768;2024-03-02T02:44:57;98411.91;;;7.11;100.00
46876;BME280;32866;50.160;14.768;2024-03-02T02:47:23;98412.84;;;7.17;100.00
46876;BME280;32866;50.160;14.768;2024-03-02T02:49:49;98410.44;;;7.19;100.00
46876;BME280;32866;50.160;14.768;2024-03-02T02:52:14;98406.22;;;7.18;100.00
46876;BME280;32866;50.160;14.768;2024-03-02T02:54:40;98409.38;;;7.16;100.00
46876;BME280;32866;50.160;14.768;2024-03-02T02:57:06;98401.94;;;7.17;100.00
46876;BME280;32866;50.160;14.768;2024-03-02T02:59:32;98404.03;;;7.13;100.00
46876;BME280;32866;50.160;14.768;2024-03-02T03:01:57;98411.78;;;7.14;100.00
46876;BME280;32866;50.160;14.768;2024-03-02T03:04:23;98412.66;;;7.11;100.00
46876;BME280;32866;50.160;14.768;2024-03-02T03:06:49;98412.34;;;7.09;100.00
46876;BME280;32866;50.160;14.768;2024-03-02T03:09:15;98412.78;;;7.08;100.00
46876;BME280;32866;50.160;14.768;2024-03-02T03:11:40;98419.84;;;7.05;100.00
46876;BME280;32866;50.160;14.768;2024-03-02T03:14:06;98415.81;;;7.10;100.00
46876;BME280;32866;50.160;14.768;2024-03-02T03:16:32;98420.25;;;7.29;100.00
46876;BME280;32866;50.160;14.768;2024-03-02T03:18:58;98425.06;;;7.25;100.00
46876;BME280;32866;50.160;14.768;2024-03-02T03:21:23;98418.75;;;7.15;100.00
46876;BME280;32866;50.160;14.768;2024-03-02T03:23:49;98424.97;;;7.16;100.00
46876;BME280;32866;50.160;14.768;2024-03-02T03:26:15;98419.16;;;7.14;100.00
46876;BME280;32866;50.160;14.768;2024-03-02T03:28:41;98425.84;;;7.13;100.00
46876;BME280;32866;50.160;14.768;2024-03-02T03:31:06;98415.81;;;7.10;100.00
46876;BME280;32866;50.160;14.768;2024-03-02T03:33:32;98423.34;;;7.05;100.00
46876;BME280;32866;50.160;14.768;2024-03-02T03:35:58;98426.72;;;7.10;100.00
46876;BME280;32866;50.160;14.768;2024-03-02T03:38:24;98429.88;;;7.08;100.00
46876;BME280;32866;50.160;14.768;2024-03-02T03:40:49;98429.56;;;7.06;100.00
46876;BME280;32866;50.160;14.768;2024-03-02T03:43:15;98429.97;;;7.04;100.00
46876;BME280;32866;50.160;14.768;2024-03-02T03:45:41;98434.25;;;7.05;100.00
46876;BME280;32866;50.160;14.768;2024-03-02T03:48:07;98428.44;;;7.03;100.00
46876;BME280;32866;50.160;14.768;2024-03-02T03:50:33;98443.16;;;7.06;100.00
46876;BME280;32866;50.160;14.768;2024-03-02T03:52:58;98436.97;;;7.05;100.00
46876;BME280;32866;50.160;14.768;2024-03-02T03:55:24;98448.63;;;7.06;100.00
46876;BME280;32866;50.160;14.768;2024-03-02T03:57:50;98439.13;;;7.11;100.00
46876;BME280;32866;50.160;14.768;2024-03-02T04:00:16;98450.25;;;7.16;100.00
46876;BME280;32866;50.160;14.768;2024-03-02T04:02:42;98452.53;;;7.18;100.00
46876;BME280;32866;50.160;14.768;2024-03-02T04:05:08;98448.28;;;7.17;100.00
46876;BME280;32866;50.160;14.768;2024-03-02T04:07:36;98453.09;;;7.13;100.00
46876;BME280;32866;50.160;14.768;2024-03-02T04:10:09;98458.22;;;7.11;100.00
46876;BME280;32866;50.160;14.768;2024-03-02T04:12:38;98455.13;;;7.09;100.00
46876;BME280;32866;50.160;14.768;2024-03-02T04:15:04;98453.31;;;7.05;100.00
46876;BME280;32866;50.160;14.768;2024-03-02T04:17:32;98457.97;;;7.05;100.00
46876;BME280;32866;50.160;14.768;2024-03-02T04:19:58;98450.13;;;7.07;100.00
46876;BME280;32866;50.160;14.768;2024-03-02T04:22:24;98450.91;;;7.08;100.00
46876;BME280;32866;50.160;14.768;2024-03-02T04:24:50;98464.84;;;7.10;100.00
46876;BME280;32866;50.160;14.768;2024-03-02T04:27:15;98460.16;;;7.10;100.00
46876;BME280;32866;50.160;14.768;2024-03-02T04:29:41;98457.09;;;7.08;100.00
46876;BME280;32866;50.160;14.768;2024-03-02T04:32:07;98468.75;;;7.09;100.00
46876;BME280;32866;50.160;14.768;2024-03-02T04:34:33;98471.28;;;7.16;100.00
46876;BME280;32866;50.160;14.768;2024-03-02T04:36:59;98469.53;;;7.09;100.00
46876;BME280;32866;50.160;14.768;2024-03-02T04:39:24;98469.00;;;7.01;100.00
46876;BME280;32866;50.160;14.768;2024-03-02T04:41:50;98471.38;;;6.99;100.00
46876;BME280;32866;50.160;14.768;2024-03-02T04:44:16;98482.59;;;7.01;100.00
46876;BME280;32866;50.160;14.768;2024-03-02T04:46:42;98475.88;;;7.06;100.00
46876;BME280;32866;50.160;14.768;2024-03-02T04:49:07;98477.38;;;7.07;100.00
46876;BME280;32866;50.160;14.768;2024-03-02T04:51:33;98477.91;;;7.02;100.00
46876;BME280;32866;50.160;14.768;2024-03-02T04:53:59;98474.66;;;6.94;100.00
46876;BME280;32866;50.160;14.768;2024-03-02T04:56:25;98482.16;;;6.90;100.00
46876;BME280;32866;50.160;14.768;2024-03-02T04:58:57;98490.31;;;6.90;100.00
46876;BME280;32866;50.160;14.768;2024-03-02T05:01:22;98486.97;;;6.99;100.00
46876;BME280;32866;50.160;14.768;2024-03-02T05:03:48;98486.88;;;7.02;100.00
46876;BME280;32866;50.160;14.768;2024-03-02T05:06:14;98484.47;;;7.04;100.00
46876;BME280;32866;50.160;14.768;2024-03-02T05:08:40;98482.06;;;7.06;100.00
46876;BME280;32866;50.160;14.768;2024-03-02T05:11:05;98482.38;;;7.09;100.00
46876;BME280;32866;50.160;14.768;2024-03-02T05:13:50;98479.78;;;7.05;100.00
46876;BME280;32866;50.160;14.768;2024-03-02T05:16:16;98487.72;;;6.99;100.00
46876;BME280;32866;50.160;14.768;2024-03-02T05:18:41;98486.31;;;6.95;100.00
46876;BME280;32866;50.160;14.768;2024-03-02T05:21:07;98489.56;;;6.90;100.00
46876;BME280;32866;50.160;14.768;2024-03-02T05:23:33;98492.09;;;6.84;100.00
46876;BME280;32866;50.160;14.768;2024-03-02T05:25:59;98506.66;;;6.90;100.00
46876;BME280;32866;50.160;14.768;2024-03-02T05:28:24;98509.38;;;6.90;100.00
46876;BME280;32866;50.160;14.768;2024-03-02T05:30:50;98512.22;;;6.86;100.00
46876;BME280;32866;50.160;14.768;2024-03-02T05:33:16;98510.78;;;6.82;100.00
46876;BME280;32866;50.160;14.768;2024-03-02T05:35:43;98506.25;;;6.79;100.00
46876;BME280;32866;50.160;14.768;2024-03-02T05:38:09;98508.59;;;6.77;100.00
46876;BME280;32866;50.160;14.768;2024-03-02T05:40:35;98517.31;;;6.72;100.00
46876;BME280;32866;50.160;14.768;2024-03-02T05:43:00;98511.22;;;6.67;100.00
46876;BME280;32866;50.160;14.768;2024-03-02T05:45:26;98505.88;;;6.64;100.00
46876;BME280;32866;50.160;14.768;2024-03-02T05:47:52;98517.53;;;6.64;100.00
46876;BME280;32866;50.160;14.768;2024-03-02T05:50:18;98509.78;;;6.63;100.00
46876;BME280;32866;50.160;14.768;2024-03-02T05:52:45;98522.22;;;6.64;100.00
46876;BME280;32866;50.160;14.768;2024-03-02T05:55:11;98518.28;;;6.65;100.00
46876;BME280;32866;50.160;14.768;2024-03-02T05:57:37;98520.56;;;6.66;100.00
46876;BME280;32866;50.160;14.768;2024-03-02T06:00:09;98518.97;;;6.69;100.00
46876;BME280;32866;50.160;14.768;2024-03-02T06:02:34;98522.66;;;6.75;100.00
46876;BME280;32866;50.160;14.768;2024-03-02T06:05:03;98522.13;;;6.80;100.00
46876;BME280;32866;50.160;14.768;2024-03-02T06:07:29;98528.47;;;6.90;100.00
46876;BME280;32866;50.160;14.768;2024-03-02T06:09:55;98530.88;;;7.01;100.00
46876;BME280;32866;50.160;14.768;2024-03-02T06:12:21;98531.41;;;7.09;100.00
46876;BME280;32866;50.160;14.768;2024-03-02T06:14:47;98537.00;;;7.18;100.00
46876;BME280;32866;50.160;14.768;2024-03-02T06:17:13;98531.88;;;7.20;100.00
46876;BME280;32866;50.160;14.768;2024-03-02T06:19:38;98530.88;;;7.14;100.00
46876;BME280;32866;50.160;14.768;2024-03-02T06:22:04;98538.19;;;7.17;100.00
46876;BME280;32866;50.160;14.768;2024-03-02T06:24:31;98534.50;;;7.23;100.00
46876;BME280;32866;50.160;14.768;2024-03-02T06:26:56;98536.66;;;7.29;100.00
46876;BME280;32866;50.160;14.768;2024-03-02T06:29:22;98533.81;;;7.32;100.00
46876;BME280;32866;50.160;14.768;2024-03-02T06:31:48;98544.53;;;7.39;100.00
46876;BME280;32866;50.160;14.768;2024-03-02T06:34:14;98548.69;;;7.44;100.00
46876;BME280;32866;50.160;14.768;2024-03-02T06:36:39;98554.03;;;7.48;100.00
46876;BME280;32866;50.160;14.768;2024-03-02T06:39:06;98558.69;;;7.60;100.00
46876;BME280;32866;50.160;14.768;2024-03-02T06:41:33;98564.53;;;7.84;100.00
46876;BME280;32866;50.160;14.768;2024-03-02T06:43:59;98560.94;;;8.00;100.00
46876;BME280;32866;50.160;14.768;2024-03-02T06:46:25;98570.97;;;8.03;100.00
46876;BME280;32866;50.160;14.768;2024-03-02T06:48:51;98561.69;;;8.01;100.00
46876;BME280;32866;50.160;14.768;2024-03-02T06:51:16;98568.06;;;7.85;100.00
46876;BME280;32866;50.160;14.768;2024-03-02T06:53:42;98577.91;;;7.69;100.00
46876;BME280;32866;50.160;14.768;2024-03-02T06:56:08;98576.16;;;7.63;100.00
46876;BME280;32866;50.160;14.768;2024-03-02T06:58:34;98582.91;;;7.58;100.00
46876;BME280;32866;50.160;14.768;2024-03-02T07:01:01;98584.22;;;7.66;100.00
46876;BME280;32866;50.160;14.768;2024-03-02T07:03:28;98589.13;;;7.58;100.00
46876;BME280;32866;50.160;14.768;2024-03-02T07:05:54;98588.91;;;7.53;100.00
46876;BME280;32866;50.160;14.768;2024-03-02T07:08:19;98589.88;;;7.46;100.00
46876;BME280;32866;50.160;14.768;2024-03-02T07:10:45;98603.97;;;7.45;100.00
46876;BME280;32866;50.160;14.768;2024-03-02T07:13:12;98602.09;;;7.41;100.00
46876;BME280;32866;50.160;14.768;2024-03-02T07:15:38;98607.00;;;7.47;100.00
46876;BME280;32866;50.160;14.768;2024-03-02T07:18:23;98614.97;;;7.54;100.00
46876;BME280;32866;50.160;14.768;2024-03-02T07:20:48;98614.41;;;7.59;100.00
46876;BME280;32866;50.160;14.768;2024-03-02T07:23:15;98612.69;;;7.65;100.00
46876;BME280;32866;50.160;14.768;2024-03-02T07:25:41;98625.00;;;7.70;100.00
46876;BME280;32866;50.160;14.768;2024-03-02T07:28:06;98616.16;;;7.78;100.00
46876;BME280;32866;50.160;14.768;2024-03-02T07:30:35;98613.09;;;8.02;100.00
46876;BME280;32866;50.160;14.768;2024-03-02T07:33:00;98609.97;;;8.26;100.00
46876;BME280;32866;50.160;14.768;2024-03-02T07:35:26;98609.94;;;8.51;100.00
46876;BME280;32866;50.160;14.768;2024-03-02T07:37:53;98609.88;;;8.86;100.00
46876;BME280;32866;50.160;14.768;2024-03-02T07:40:19;98608.88;;;9.15;100.00
46876;BME280;32866;50.160;14.768;2024-03-02T07:42:45;98620.97;;;9.36;100.00
46876;BME280;32866;50.160;14.768;2024-03-02T07:45:11;98618.09;;;9.40;100.00
46876;BME280;32866;50.160;14.768;2024-03-02T07:47:37;98617.34;;;9.39;100.00
46876;BME280;32866;50.160;14.768;2024-03-02T07:50:02;98605.97;;;9.41;100.00
46876;BME280;32866;50.160;14.768;2024-03-02T07:52:28;98624.38;;;9.50;100.00
46876;BME280;32866;50.160;14.768;2024-03-02T07:54:54;98620.31;;;9.54;100.00
46876;BME280;32866;50.160;14.768;2024-03-02T07:57:20;98626.06;;;9.47;100.00
46876;BME280;32866;50.160;14.768;2024-03-02T07:59:46;98631.44;;;9.28;100.00
46876;BME280;32866;50.160;14.768;2024-03-02T08:02:12;98626.84;;;9.25;100.00
46876;BME280;32866;50.160;14.768;2024-03-02T08:04:38;98621.88;;;9.33;100.00
46876;BME280;32866;50.160;14.768;2024-03-02T08:07:04;98629.03;;;9.40;100.00
46876;BME280;32866;50.160;14.768;2024-03-02T08:09:30;98624.09;;;9.57;100.00
46876;BME280;32866;50.160;14.768;2024-03-02T08:11:56;98623.44;;;9.75;100.00
46876;BME280;32866;50.160;14.768;2024-03-02T08:14:23;98624.72;;;9.92;100.00
46876;BME280;32866;50.160;14.768;2024-03-02T08:16:49;98631.41;;;9.91;100.00
46876;BME280;32866;50.160;14.768;2024-03-02T08:19:15;98631.69;;;9.93;100.00
46876;BME280;32866;50.160;14.768;2024-03-02T08:21:41;98630.16;;;9.83;100.00
46876;BME280;32866;50.160;14.768;2024-03-02T08:24:06;98635.91;;;9.76;100.00
46876;BME280;32866;50.160;14.768;2024-03-02T08:26:32;98635.31;;;9.81;100.00
46876;BME280;32866;50.160;14.768;2024-03-02T08:28:59;98631.41;;;9.91;100.00
46876;BME280;32866;50.160;14.768;2024-03-02T08:31:27;98638.59;;;10.07;100.00
46876;BME280;32866;50.160;14.768;2024-03-02T08:33:53;98637.47;;;10.36;100.00
46876;BME280;32866;50.160;14.768;2024-03-02T08:36:19;98633.38;;;10.50;100.00
46876;BME280;32866;50.160;14.768;2024-03-02T08:38:45;98641.44;;;10.72;100.00
46876;BME280;32866;50.160;14.768;2024-03-02T08:41:11;98643.84;;;11.07;100.00
46876;BME280;32866;50.160;14.768;2024-03-02T08:43:40;98643.53;;;11.14;100.00
46876;BME280;32866;50.160;14.768;2024-03-02T08:46:06;98631.66;;;11.26;100.00
46876;BME280;32866;50.160;14.768;2024-03-02T08:48:32;98629.91;;;11.47;100.00
46876;BME280;32866;50.160;14.768;2024-03-02T08:50:57;98632.38;;;11.79;100.00
46876;BME280;32866;50.160;14.768;2024-03-02T08:53:23;98631.69;;;12.27;100.00
46876;BME280;32866;50.160;14.768;2024-03-02T08:55:55;98618.72;;;12.27;100.00
46876;BME280;32866;50.160;14.768;2024-03-02T08:58:20;98619.59;;;12.09;100.00
46876;BME280;32866;50.160;14.768;2024-03-02T09:00:46;98631.56;;;11.87;100.00
46876;BME280;32866;50.160;14.768;2024-03-02T09:03:12;98623.16;;;11.58;100.00
46876;BME280;32866;50.160;14.768;2024-03-02T09:05:38;98629.44;;;11.49;100.00
46876;BME280;32866;50.160;14.768;2024-03-02T09:08:04;98630.28;;;11.64;100.00
46876;BME280;32866;50.160;14.768;2024-03-02T09:10:30;98631.03;;;11.74;100.00
46876;BME280;32866;50.160;14.768;2024-03-02T09:15:29;98619.56;;;12.18;100.00
46876;BME280;32866;50.160;14.768;2024-03-02T09:17:55;98623.13;;;12.34;100.00
46876;BME280;32866;50.160;14.768;2024-03-02T09:20:21;98626.72;;;12.40;100.00
46876;BME280;32866;50.160;14.768;2024-03-02T09:22:48;98632.56;;;12.33;100.00
46876;BME280;32866;50.160;14.768;2024-03-02T09:25:14;98620.34;;;12.10;100.00
46876;BME280;32866;50.160;14.768;2024-03-02T09:27:41;98631.25;;;11.95;100.00
46876;BME280;32866;50.160;14.768;2024-03-02T09:30:07;98633.59;;;11.78;100.00
46876;BME280;32866;50.160;14.768;2024-03-02T09:32:33;98636.00;;;11.51;100.00
46876;BME280;32866;50.160;14.768;2024-03-02T09:34:59;98628.69;;;11.39;100.00
46876;BME280;32866;50.160;14.768;2024-03-02T09:37:25;98635.38;;;11.47;100.00
46876;BME280;32866;50.160;14.768;2024-03-02T09:39:51;98624.56;;;11.86;100.00
46876;BME280;32866;50.160;14.768;2024-03-02T09:42:17;98630.47;;;12.28;100.00
46876;BME280;32866;50.160;14.768;2024-03-02T09:44:43;98632.72;;;12.92;100.00
46876;BME280;32866;50.160;14.768;2024-03-02T09:47:09;98632.66;;;13.61;100.00
46876;BME280;32866;50.160;14.768;2024-03-02T09:49:35;98637.31;;;14.88;100.00
46876;BME280;32866;50.160;14.768;2024-03-02T09:52:01;98636.53;;;14.81;100.00
46876;BME280;32866;50.160;14.768;2024-03-02T09:54:28;98642.72;;;14.35;100.00
46876;BME280;32866;50.160;14.768;2024-03-02T09:56:54;98638.28;;;13.87;100.00
46876;BME280;32866;50.160;14.768;2024-03-02T09:59:20;98634.47;;;13.64;100.00
46876;BME280;32866;50.160;14.768;2024-03-02T10:02:01;98638.44;;;13.63;100.00
46876;BME280;32866;50.160;14.768;2024-03-02T10:04:28;98642.28;;;14.22;100.00
46876;BME280;32866;50.160;14.768;2024-03-02T10:07:13;98634.44;;;14.76;100.00
46876;BME280;32866;50.160;14.768;2024-03-02T10:09:39;98638.19;;;14.99;100.00
46876;BME280;32866;50.160;14.768;2024-03-02T10:12:06;98651.47;;;14.95;100.00
46876;BME280;32866;50.160;14.768;2024-03-02T10:14:32;98639.16;;;14.50;100.00
46876;BME280;32866;50.160;14.768;2024-03-02T10:17:07;98623.50;;;13.85;100.00
46876;BME280;32866;50.160;14.768;2024-03-02T10:19:34;98628.22;;;13.34;100.00
46876;BME280;32866;50.160;14.768;2024-03-02T10:22:03;98633.13;;;13.15;100.00
46876;BME280;32866;50.160;14.768;2024-03-02T10:24:36;98632.25;;;12.79;100.00
46876;BME280;32866;50.160;14.768;2024-03-02T10:27:06;98630.06;;;12.44;100.00
46876;BME280;32866;50.160;14.768;2024-03-02T10:29:32;98637.00;;;12.06;100.00
46876;BME280;32866;50.160;14.768;2024-03-02T10:31:57;98630.22;;;11.83;100.00
46876;BME280;32866;50.160;14.768;2024-03-02T10:34:24;98633.59;;;11.78;100.00
46876;BME280;32866;50.160;14.768;2024-03-02T10:36:50;98630.38;;;11.79;100.00
46876;BME280;32866;50.160;14.768;2024-03-02T10:39:16;98628.44;;;11.70;100.00
46876;BME280;32866;50.160;14.768;2024-03-02T10:41:42;98619.59;;;11.76;100.00
46876;BME280;32866;50.160;14.768;2024-03-02T10:44:09;98623.16;;;12.00;100.00
46876;BME280;32866;50.160;14.768;2024-03-02T10:46:35;98613.63;;;12.35;100.00
46876;BME280;32866;50.160;14.768;2024-03-02T10:49:02;98619.22;;;12.65;100.00
46876;BME280;32866;50.160;14.768;2024-03-02T10:51:30;98618.47;;;12.64;100.00
46876;BME280;32866;50.160;14.768;2024-03-02T10:54:00;98618.13;;;12.86;100.00
46876;BME280;32866;50.160;14.768;2024-03-02T10:56:41;98613.84;;;12.70;100.00
46876;BME280;32866;50.160;14.768;2024-03-02T10:59:25;98613.72;;;12.65;100.00
46876;BME280;32866;50.160;14.768;2024-03-02T11:01:53;98602.84;;;13.00;100.00
46876;BME280;32866;50.160;14.768;2024-03-02T11:04:20;98597.63;;;13.62;100.00
46876;BME280;32866;50.160;14.768;2024-03-02T11:06:48;98599.28;;;14.51;100.00
46876;BME280;32866;50.160;14.768;2024-03-02T11:09:14;98594.75;;;15.20;100.00
46876;BME280;32866;50.160;14.768;2024-03-02T11:11:43;98591.28;;;15.26;100.00
46876;BME280;32866;50.160;14.768;2024-03-02T11:14:13;98596.34;;;15.65;100.00
46876;BME280;32866;50.160;14.768;2024-03-02T11:16:40;98587.06;;;15.30;100.00
46876;BME280;32866;50.160;14.768;2024-03-02T11:19:13;98588.50;;;14.94;100.00
46876;BME280;32866;50.160;14.768;2024-03-02T11:21:39;98585.56;;;15.03;100.00
46876;BME280;32866;50.160;14.768;2024-03-02T11:26:46;98582.53;;;14.54;100.00
46876;BME280;32866;50.160;14.768;2024-03-02T11:31:57;98577.88;;;13.63;100.00
46876;BME280;32866;50.160;14.768;2024-03-02T11:34:28;98582.66;;;13.18;100.00
46876;BME280;32866;50.160;14.768;2024-03-02T11:36:54;98581.66;;;12.61;100.00
46876;BME280;32866;50.160;14.768;2024-03-02T11:39:20;98584.28;;;12.41;100.00
46876;BME280;32866;50.160;14.768;2024-03-02T11:41:46;98576.94;;;12.23;100.00
46876;BME280;32866;50.160;14.768;2024-03-02T11:44:12;98582.38;;;12.08;100.00
46876;BME280;32866;50.160;14.768;2024-03-02T11:46:41;98573.38;;;11.74;100.00
46876;BME280;32866;50.160;14.768;2024-03-02T11:49:07;98572.91;;;11.51;100.00
46876;BME280;32866;50.160;14.768;2024-03-02T11:51:33;98573.53;;;11.37;100.00
46876;BME280;32866;50.160;14.768;2024-03-02T11:53:59;98566.88;;;11.29;100.00
46876;BME280;32866;50.160;14.768;2024-03-02T11:56:26;98568.69;;;11.32;100.00
46876;BME280;32866;50.160;14.768;2024-03-02T11:58:53;98570.50;;;11.35;100.00
46876;BME280;32866;50.160;14.768;2024-03-02T12:01:19;98566.22;;;11.43;100.00
46876;BME280;32866;50.160;14.768;2024-03-02T12:03:45;98577.78;;;11.47;100.00
46876;BME280;32866;50.160;14.768;2024-03-02T12:06:11;98565.19;;;11.31;100.00
46876;BME280;32866;50.160;14.768;2024-03-02T12:08:38;98569.97;;;11.12;100.00
46876;BME280;32866;50.160;14.768;2024-03-02T12:11:04;98574.84;;;11.08;100.00
46876;BME280;32866;50.160;14.768;2024-03-02T12:13:32;98568.28;;;11.15;100.00
46876;BME280;32866;50.160;14.768;2024-03-02T12:15:58;98563.53;;;11.25;100.00
46876;BME280;32866;50.160;14.768;2024-03-02T12:18:24;98569.25;;;11.45;100.00
46876;BME280;32866;50.160;14.768;2024-03-02T12:20:50;98563.78;;;11.69;100.00
46876;BME280;32866;50.160;14.768;2024-03-02T12:23:28;98573.75;;;12.00;100.00
46876;BME280;32866;50.160;14.768;2024-03-02T12:25:54;98563.97;;;12.23;100.00
46876;BME280;32866;50.160;14.768;2024-03-02T12:28:20;98567.38;;;12.33;100.00
46876;BME280;32866;50.160;14.768;2024-03-02T12:30:45;98561.66;;;12.46;100.00
46876;BME280;32866;50.160;14.768;2024-03-02T12:33:13;98553.81;;;12.54;100.00
46876;BME280;32866;50.160;14.768;2024-03-02T12:35:39;98567.25;;;12.52;100.00
46876;BME280;32866;50.160;14.768;2024-03-02T12:38:05;98561.91;;;12.33;100.00
46876;BME280;32866;50.160;14.768;2024-03-02T12:40:31;98559.41;;;12.20;100.00
46876;BME280;32866;50.160;14.768;2024-03-02T12:42:57;98553.31;;;12.16;100.00
46876;BME280;32866;50.160;14.768;2024-03-02T12:45:23;98556.25;;;12.37;100.00
46876;BME280;32866;50.160;14.768;2024-03-02T12:47:51;98545.75;;;12.50;100.00
46876;BME280;32866;50.160;14.768;2024-03-02T12:50:17;98548.34;;;12.69;100.00
46876;BME280;32866;50.160;14.768;2024-03-02T12:52:43;98545.41;;;13.02;100.00